createdAt,value
2023-09-18T00:01:45.571Z,9.90
2023-09-18T00:04:15.075Z,7.78
2023-09-18T00:06:43.179Z,5.55
2023-09-18T00:09:14.442Z,9.50
2023-09-18T00:11:42.644Z,7.60
2023-09-18T00:14:11.272Z,9.43
2023-09-18T00:16:55.951Z,9.40
2023-09-18T00:19:27.795Z,8.40
2023-09-18T00:21:57.511Z,11.77
2023-09-18T00:24:26.338Z,8.60
2023-09-18T00:26:55.118Z,9.83
2023-09-18T00:29:23.345Z,10.90
2023-09-18T00:31:51.561Z,8.40
2023-09-18T00:34:19.726Z,6.43
2023-09-18T00:36:49.166Z,6.18
2023-09-18T00:39:17.638Z,9.20
2023-09-18T00:41:51.592Z,7.35
2023-09-18T00:44:19.721Z,10.45
2023-09-18T00:46:48.320Z,8.43
2023-09-18T00:49:17.284Z,7.60
2023-09-18T00:51:46.346Z,6.28
2023-09-18T00:54:19.254Z,7.40
2023-09-18T00:56:49.173Z,7.03
2023-09-18T00:59:17.607Z,6.40
2023-09-18T01:01:47.465Z,13.50
2023-09-18T01:04:17.070Z,9.20
2023-09-18T01:06:45.342Z,10.80
2023-09-18T01:09:16.161Z,8.85
2023-09-18T01:11:53.049Z,9.82
2023-09-18T01:14:31.119Z,9.80
2023-09-18T01:17:02.919Z,8.70
2023-09-18T01:19:39.011Z,7.32
2023-09-18T01:22:07.850Z,9.05
2023-09-18T01:24:38.690Z,6.82
2023-09-18T01:27:09.553Z,9.80
2023-09-18T01:29:37.848Z,13.07
2023-09-18T01:32:06.717Z,7.30
2023-09-18T01:34:37.176Z,7.85
2023-09-18T01:37:08.216Z,7.15
2023-09-18T01:39:38.372Z,7.47
2023-09-18T01:42:08.117Z,6.97
2023-09-18T01:44:36.606Z,9.30
2023-09-18T01:47:06.042Z,9.02
2023-09-18T01:49:35.997Z,13.30
2023-09-18T01:52:04.632Z,7.00
2023-09-18T01:54:32.922Z,6.22
2023-09-18T01:57:02.937Z,11.20
2023-09-18T01:59:31.600Z,10.50
2023-09-18T02:02:00.401Z,6.38
2023-09-18T02:04:45.888Z,7.80
2023-09-18T02:07:18.043Z,11.43
2023-09-18T02:09:46.711Z,10.55
2023-09-18T02:12:18.757Z,11.70
2023-09-18T02:14:47.390Z,8.67
2023-09-18T02:17:15.493Z,7.07
2023-09-18T02:19:44.095Z,8.20
2023-09-18T02:22:12.161Z,9.75
2023-09-18T02:24:40.475Z,9.10
2023-09-18T02:27:08.698Z,8.98
2023-09-18T02:29:38.262Z,14.25
2023-09-18T02:32:06.744Z,7.38
2023-09-18T02:34:35.232Z,13.07
2023-09-18T02:37:04.334Z,7.68
2023-09-18T02:39:32.489Z,10.38
2023-09-18T02:42:00.631Z,9.52
2023-09-18T02:44:28.836Z,9.57
2023-09-18T02:46:58.292Z,13.53
2023-09-18T02:49:26.359Z,7.28
2023-09-18T02:51:54.477Z,7.25
2023-09-18T02:54:22.581Z,8.20
2023-09-18T02:56:50.700Z,7.55
2023-09-18T02:59:18.798Z,10.05
2023-09-18T03:01:47.694Z,9.00
2023-09-18T03:04:17.339Z,10.27
2023-09-18T03:06:45.508Z,8.55
2023-09-18T03:09:13.950Z,7.40
2023-09-18T03:11:42.207Z,8.60
2023-09-18T03:14:10.379Z,7.70
2023-09-18T03:16:38.767Z,7.40
2023-09-18T03:19:07.169Z,8.47
2023-09-18T03:21:36.920Z,8.05
2023-09-18T03:24:05.625Z,7.07
2023-09-18T03:26:33.887Z,7.83
2023-09-18T03:29:02.645Z,9.20
2023-09-18T03:31:31.376Z,6.03
2023-09-18T03:34:00.045Z,8.20
2023-09-18T03:36:29.667Z,7.63
2023-09-18T03:38:59.446Z,9.25
2023-09-18T03:41:27.826Z,8.85
2023-09-18T03:43:56.829Z,8.48
2023-09-18T03:46:24.974Z,7.70
2023-09-18T03:48:53.385Z,9.40
2023-09-18T03:51:21.778Z,7.20
2023-09-18T03:53:50.038Z,6.13
2023-09-18T03:56:19.533Z,7.72
2023-09-18T03:58:50.884Z,6.75
2023-09-18T04:01:19.395Z,8.50
2023-09-18T04:03:48.052Z,10.15
2023-09-18T04:06:16.224Z,6.75
2023-09-18T04:08:44.311Z,6.20
2023-09-18T04:11:12.656Z,9.25
2023-09-18T04:13:42.225Z,5.00
2023-09-18T04:16:10.338Z,5.63
2023-09-18T04:18:38.875Z,6.90
2023-09-18T04:21:06.932Z,9.43
2023-09-18T04:23:37.667Z,6.85
2023-09-18T04:26:05.792Z,7.80
2023-09-18T04:28:33.935Z,5.82
2023-09-18T04:31:03.434Z,6.47
2023-09-18T04:33:31.694Z,9.30
2023-09-18T04:35:59.881Z,13.80
2023-09-18T04:38:28.371Z,7.63
2023-09-18T04:41:00.612Z,12.30
2023-09-18T04:43:30.988Z,9.73
2023-09-18T04:45:59.784Z,12.10
2023-09-18T04:48:29.323Z,39.70
2023-09-18T04:50:57.545Z,9.98
2023-09-18T04:53:26.809Z,11.70
2023-09-18T04:55:55.429Z,40.40
2023-09-18T04:58:24.030Z,30.65
2023-09-18T05:00:56.925Z,22.63
2023-09-18T05:03:25.463Z,16.27
2023-09-18T05:05:55.739Z,17.00
2023-09-18T05:08:24.424Z,10.10
2023-09-18T05:10:52.650Z,14.90
2023-09-18T05:13:20.777Z,10.10
2023-09-18T05:15:48.848Z,8.35
2023-09-18T05:18:17.507Z,8.18
2023-09-18T05:20:45.800Z,7.75
2023-09-18T05:23:17.168Z,10.77
2023-09-18T05:25:47.037Z,10.30
2023-09-18T05:28:15.387Z,8.40
2023-09-18T05:30:43.771Z,10.30
2023-09-18T05:33:11.960Z,16.48
2023-09-18T05:35:43.187Z,12.55
2023-09-18T05:38:14.633Z,15.90
2023-09-18T05:40:45.895Z,9.73
2023-09-18T05:43:14.103Z,11.35
2023-09-18T05:45:42.326Z,14.05
2023-09-18T05:48:10.739Z,8.55
2023-09-18T05:50:38.899Z,6.90
2023-09-18T05:53:07.181Z,12.32
2023-09-18T05:55:36.356Z,11.67
2023-09-18T05:58:07.969Z,10.65
2023-09-18T06:00:36.177Z,8.48
2023-09-18T06:03:06.603Z,6.35
2023-09-18T06:05:35.719Z,10.40
2023-09-18T06:08:04.343Z,13.32
2023-09-18T06:10:32.406Z,11.20
2023-09-18T06:13:05.238Z,9.75
2023-09-18T06:15:35.101Z,12.15
2023-09-18T06:18:04.374Z,9.50
2023-09-18T06:20:32.723Z,9.07
2023-09-18T06:23:00.799Z,12.50
2023-09-18T06:25:29.814Z,6.53
2023-09-18T06:27:57.874Z,9.57
2023-09-18T06:30:26.050Z,6.88
2023-09-18T06:32:55.829Z,6.65
2023-09-18T06:35:24.036Z,9.65
2023-09-18T06:37:52.135Z,8.98
2023-09-18T06:40:20.877Z,18.53
2023-09-18T06:42:48.950Z,6.80
2023-09-18T06:45:17.088Z,9.18
2023-09-18T06:47:45.879Z,7.00
2023-09-18T06:50:17.313Z,10.00
2023-09-18T06:52:45.742Z,7.93
2023-09-18T06:55:14.085Z,13.18
2023-09-18T06:57:42.521Z,6.72
2023-09-18T07:00:11.851Z,9.13
2023-09-18T07:02:40.142Z,8.32
2023-09-18T07:05:08.818Z,9.00
2023-09-18T07:07:38.431Z,8.90
2023-09-18T07:10:07.096Z,7.18
2023-09-18T07:12:35.419Z,4.70
2023-09-18T07:15:05.887Z,7.75
2023-09-18T07:17:34.822Z,21.00
2023-09-18T07:20:10.383Z,8.68
2023-09-18T07:22:40.125Z,4.35
2023-09-18T07:25:09.085Z,6.65
2023-09-18T07:27:39.844Z,7.15
2023-09-18T07:30:09.262Z,6.70
2023-09-18T07:32:38.841Z,8.25
2023-09-18T07:35:09.096Z,9.53
2023-09-18T07:37:37.718Z,9.68
2023-09-18T07:40:08.665Z,12.40
2023-09-18T07:42:36.744Z,8.03
2023-09-18T07:45:05.209Z,10.40
2023-09-18T07:47:33.413Z,4.20
2023-09-18T07:50:02.545Z,6.45
2023-09-18T07:52:30.790Z,7.47
2023-09-18T07:55:00.239Z,5.90
2023-09-18T07:57:31.691Z,6.78
2023-09-18T07:59:59.953Z,9.15
2023-09-18T08:02:30.023Z,6.35
2023-09-18T08:04:58.331Z,4.75
2023-09-18T08:07:26.408Z,3.95
2023-09-18T08:09:54.504Z,4.43
2023-09-18T08:12:22.650Z,2.65
2023-09-18T08:14:52.221Z,4.47
2023-09-18T08:17:20.408Z,7.37
2023-09-18T08:19:53.252Z,9.55
2023-09-18T08:22:22.349Z,5.13
2023-09-18T08:24:53.609Z,4.50
2023-09-18T08:27:22.523Z,3.03
2023-09-18T08:29:52.092Z,4.53
2023-09-18T08:32:22.348Z,4.30
2023-09-18T08:34:50.616Z,4.57
2023-09-18T08:37:18.685Z,2.90
2023-09-18T08:39:46.818Z,5.18
2023-09-18T08:42:17.625Z,4.60
2023-09-18T08:44:48.172Z,7.40
2023-09-18T08:47:20.799Z,5.25
2023-09-18T08:49:51.860Z,6.05
2023-09-18T08:52:20.781Z,5.38
2023-09-18T08:54:49.267Z,5.07
2023-09-18T08:57:17.543Z,4.87
2023-09-18T08:59:47.112Z,5.30
2023-09-18T09:02:15.595Z,5.75
2023-09-18T09:04:45.279Z,3.33
2023-09-18T09:07:13.459Z,4.88
2023-09-18T09:09:42.872Z,3.15
2023-09-18T09:12:11.249Z,5.03
2023-09-18T09:14:39.883Z,3.83
2023-09-18T09:17:08.332Z,3.63
2023-09-18T09:19:39.854Z,6.68
2023-09-18T09:22:10.465Z,5.07
2023-09-18T09:24:40.290Z,5.22
2023-09-18T09:27:09.205Z,4.72
2023-09-18T09:29:37.748Z,4.15
2023-09-18T09:32:16.826Z,3.83
2023-09-18T09:34:45.301Z,6.00
2023-09-18T09:37:14.992Z,3.53
2023-09-18T09:39:50.766Z,3.05
2023-09-18T09:42:25.617Z,3.63
2023-09-18T09:45:05.268Z,5.18
2023-09-18T09:47:36.194Z,5.43
2023-09-18T09:50:10.793Z,4.53
2023-09-18T09:52:47.851Z,7.50
2023-09-18T09:55:27.940Z,3.67
2023-09-18T09:57:58.493Z,3.53
2023-09-18T10:00:32.801Z,2.40
2023-09-18T10:03:04.607Z,4.03
2023-09-18T10:05:36.068Z,3.83
2023-09-18T10:08:10.578Z,3.10
2023-09-18T10:10:40.941Z,3.35
2023-09-18T10:13:12.642Z,3.90
2023-09-18T10:15:44.455Z,2.88
2023-09-18T10:18:24.700Z,3.30
2023-09-18T10:20:58.931Z,3.90
2023-09-18T10:23:41.937Z,2.83
2023-09-18T10:26:12.522Z,2.70
2023-09-18T10:28:42.715Z,4.97
2023-09-18T10:31:12.824Z,3.97
2023-09-18T10:33:42.156Z,4.30
2023-09-18T10:36:12.034Z,6.70
2023-09-18T10:38:42.218Z,2.20
2023-09-18T10:41:12.805Z,9.63
2023-09-18T10:43:41.010Z,4.60
2023-09-18T10:46:09.274Z,6.15
2023-09-18T10:48:38.155Z,4.90
2023-09-18T10:51:06.927Z,3.88
2023-09-18T10:53:35.398Z,7.45
2023-09-18T10:56:06.249Z,4.35
2023-09-18T10:58:36.612Z,18.38
2023-09-18T11:01:06.654Z,4.32
2023-09-18T11:03:36.178Z,2.27
2023-09-18T11:06:07.044Z,3.20
2023-09-18T11:08:37.076Z,3.90
2023-09-18T11:11:12.317Z,4.00
2023-09-18T11:13:42.429Z,1.90
2023-09-18T11:16:22.920Z,3.13
2023-09-18T11:18:54.586Z,5.97
2023-09-18T11:21:27.449Z,3.25
2023-09-18T11:24:06.636Z,5.70
2023-09-18T11:26:37.903Z,3.40
2023-09-18T11:29:10.301Z,4.30
2023-09-18T11:31:45.816Z,2.60
2023-09-18T11:34:15.469Z,8.20
2023-09-18T11:36:43.915Z,3.08
2023-09-18T11:39:12.963Z,5.90
2023-09-18T11:41:42.796Z,4.00
2023-09-18T11:44:42.397Z,8.23
2023-09-18T11:47:19.309Z,2.70
2023-09-18T11:49:55.741Z,5.22
2023-09-18T11:52:25.654Z,3.38
2023-09-18T11:54:55.690Z,3.53
2023-09-18T11:57:26.002Z,5.55
2023-09-18T11:59:54.374Z,5.60
2023-09-18T12:02:36.239Z,3.05
2023-09-18T12:05:11.070Z,2.80
2023-09-18T12:07:39.369Z,2.80
2023-09-18T12:10:11.019Z,2.45
2023-09-18T12:12:40.916Z,3.65
2023-09-18T12:15:10.203Z,3.13
2023-09-18T12:17:38.432Z,2.58
2023-09-18T12:20:08.022Z,3.55
2023-09-18T12:22:37.963Z,2.80
2023-09-18T12:25:15.721Z,3.42
2023-09-18T12:27:46.739Z,3.20
2023-09-18T12:30:21.514Z,3.13
2023-09-18T12:32:49.775Z,4.38
2023-09-18T12:35:19.697Z,9.88
2023-09-18T12:37:48.036Z,8.70
2023-09-18T12:40:27.085Z,6.22
2023-09-18T12:42:57.899Z,7.00
2023-09-18T12:45:26.908Z,8.55
2023-09-18T12:47:57.902Z,13.07
2023-09-18T12:50:26.722Z,12.75
2023-09-18T12:52:54.838Z,6.20
2023-09-18T12:55:24.982Z,2.60
2023-09-18T12:57:53.364Z,6.32
2023-09-18T13:00:27.546Z,5.05
2023-09-18T13:02:57.451Z,2.63
2023-09-18T13:05:27.905Z,3.20
2023-09-18T13:07:57.491Z,3.97
2023-09-18T13:10:28.783Z,4.90
2023-09-18T13:12:59.076Z,2.15
2023-09-18T13:15:30.065Z,4.35
2023-09-18T13:17:59.191Z,4.00
2023-09-18T13:20:30.126Z,4.28
2023-09-18T13:23:01.299Z,4.20
2023-09-18T13:25:33.208Z,6.03
2023-09-18T13:28:01.591Z,7.22
2023-09-18T13:30:32.389Z,4.18
2023-09-18T13:33:05.648Z,5.40
2023-09-18T13:35:34.666Z,4.28
2023-09-18T13:38:03.189Z,11.10
2023-09-18T13:40:31.310Z,6.28
2023-09-18T13:42:59.388Z,5.00
2023-09-18T13:45:27.646Z,3.92
2023-09-18T13:47:57.101Z,5.27
2023-09-18T13:50:25.225Z,3.60
2023-09-18T13:52:54.045Z,3.80
2023-09-18T13:55:22.604Z,3.35
2023-09-18T13:57:50.976Z,4.95
2023-09-18T14:00:19.535Z,3.53
2023-09-18T14:02:48.002Z,5.63
2023-09-18T14:05:18.521Z,4.90
2023-09-18T14:07:48.378Z,3.58
2023-09-18T14:10:18.552Z,5.13
2023-09-18T14:12:47.474Z,6.53
2023-09-18T14:15:15.836Z,7.03
2023-09-18T14:17:43.991Z,6.45
2023-09-18T14:20:12.835Z,8.20
2023-09-18T14:22:42.679Z,4.00
2023-09-18T14:25:12.395Z,4.88
2023-09-18T14:27:41.591Z,6.60
2023-09-18T14:30:10.909Z,9.38
2023-09-18T14:32:39.745Z,5.90
2023-09-18T14:35:09.959Z,7.23
2023-09-18T14:37:38.820Z,5.35
2023-09-18T14:40:13.013Z,5.40
2023-09-18T14:42:41.841Z,5.38
2023-09-18T14:45:13.805Z,2.95
2023-09-18T14:47:42.258Z,8.53
2023-09-18T14:50:10.788Z,19.05
2023-09-18T14:52:38.936Z,13.98
2023-09-18T14:55:10.396Z,8.10
2023-09-18T14:57:40.229Z,3.85
2023-09-18T15:00:09.594Z,5.60
2023-09-18T15:02:37.935Z,11.43
2023-09-18T15:05:10.027Z,10.32
2023-09-18T15:07:38.114Z,9.40
2023-09-18T15:10:09.604Z,10.00
2023-09-18T15:12:37.720Z,4.75
2023-09-18T15:15:06.917Z,3.88
2023-09-18T15:17:35.071Z,4.10
2023-09-18T15:20:04.550Z,2.05
2023-09-18T15:22:32.711Z,3.90
2023-09-18T15:25:02.470Z,3.78
2023-09-18T15:27:32.157Z,2.75
2023-09-18T15:30:00.458Z,2.63
2023-09-18T15:32:31.889Z,3.30
2023-09-18T15:35:00.251Z,3.53
2023-09-18T15:37:28.584Z,2.28
2023-09-18T15:39:56.840Z,2.28
2023-09-18T15:42:24.915Z,4.63
2023-09-18T15:44:54.484Z,2.30
2023-09-18T15:47:22.667Z,6.32
2023-09-18T15:49:50.772Z,7.15
2023-09-18T15:52:18.858Z,6.05
2023-09-18T15:54:47.003Z,14.25
2023-09-18T15:57:15.205Z,13.13
2023-09-18T15:59:43.368Z,5.78
2023-09-18T16:02:13.161Z,4.57
2023-09-18T16:04:41.543Z,6.47
2023-09-18T16:07:13.342Z,12.38
2023-09-18T16:09:42.728Z,14.82
2023-09-18T16:12:10.881Z,8.50
2023-09-18T16:14:39.139Z,5.82
2023-09-18T16:17:07.271Z,6.20
2023-09-18T16:19:36.738Z,6.70
2023-09-18T16:22:05.554Z,12.55
2023-09-18T16:24:33.762Z,15.23
2023-09-18T16:27:02.995Z,18.67
2023-09-18T16:29:31.381Z,14.38
2023-09-18T16:31:59.497Z,10.57
2023-09-18T16:34:27.961Z,5.82
2023-09-18T16:36:57.442Z,5.80
2023-09-18T16:39:26.968Z,3.97
2023-09-18T16:41:55.414Z,5.50
2023-09-18T16:44:23.611Z,2.92
2023-09-18T16:46:51.706Z,4.53
2023-09-18T16:49:23.336Z,3.40
2023-09-18T16:51:51.592Z,5.18
2023-09-18T16:54:23.662Z,20.97
2023-09-18T16:56:53.007Z,33.72
2023-09-18T16:59:23.775Z,28.98
2023-09-18T17:01:52.101Z,7.28
2023-09-18T17:04:20.296Z,6.50
2023-09-18T17:06:48.556Z,6.63
2023-09-18T17:09:16.680Z,6.43
2023-09-18T17:11:46.527Z,5.77
2023-09-18T17:14:15.037Z,5.82
2023-09-18T17:16:43.286Z,7.00
2023-09-18T17:19:13.907Z,5.65
2023-09-18T17:21:42.018Z,8.70
2023-09-18T17:24:10.310Z,7.90
2023-09-18T17:26:38.651Z,10.85
2023-09-18T17:29:08.182Z,9.27
2023-09-18T17:31:36.280Z,6.50
2023-09-18T17:34:05.463Z,6.50
2023-09-18T17:36:40.856Z,4.47
2023-09-18T17:39:11.064Z,4.95
2023-09-18T17:41:39.583Z,6.70
2023-09-18T17:44:09.273Z,5.65
2023-09-18T17:46:37.338Z,15.80
2023-09-18T17:49:05.822Z,6.05
2023-09-18T17:51:35.245Z,13.05
2023-09-18T17:54:03.565Z,13.50
2023-09-18T17:56:31.826Z,7.53
2023-09-18T17:59:00.047Z,4.35
2023-09-18T18:01:29.658Z,4.97
2023-09-18T18:03:59.090Z,7.05
2023-09-18T18:06:27.659Z,10.98
2023-09-18T18:08:55.887Z,11.30
2023-09-18T18:11:24.007Z,7.53
2023-09-18T18:13:52.269Z,8.93
2023-09-18T18:16:21.942Z,6.80
2023-09-18T18:18:51.585Z,4.95
2023-09-18T18:21:21.290Z,7.38
2023-09-18T18:23:49.498Z,11.48
2023-09-18T18:26:22.100Z,5.80
2023-09-18T18:28:50.231Z,9.05
2023-09-18T18:31:18.425Z,7.88
2023-09-18T18:33:46.666Z,10.57
2023-09-18T18:36:16.133Z,5.10
2023-09-18T18:38:44.501Z,5.75
2023-09-18T18:41:13.026Z,5.70
2023-09-18T18:43:41.595Z,3.15
2023-09-18T18:46:10.898Z,4.28
2023-09-18T18:48:39.189Z,10.43
2023-09-18T18:51:18.437Z,4.35
2023-09-18T18:53:50.430Z,3.17
2023-09-18T18:56:20.523Z,5.47
2023-09-18T18:58:50.731Z,4.45
2023-09-18T19:01:21.446Z,4.20
2023-09-18T19:03:49.932Z,5.80
2023-09-18T19:06:18.745Z,5.30
2023-09-18T19:08:48.400Z,4.00
2023-09-18T19:11:17.679Z,3.30
2023-09-18T19:13:48.195Z,3.90
2023-09-18T19:16:16.359Z,4.97
2023-09-18T19:18:44.777Z,3.58
2023-09-18T19:21:13.247Z,4.45
2023-09-18T19:23:43.660Z,3.55
2023-09-18T19:26:13.590Z,4.47
2023-09-18T19:28:41.832Z,2.50
2023-09-18T19:31:10.032Z,4.20
2023-09-18T19:33:40.763Z,4.65
2023-09-18T19:36:09.480Z,4.70
2023-09-18T19:38:38.302Z,6.50
2023-09-18T19:41:07.531Z,2.95
2023-09-18T19:43:37.255Z,3.60
2023-09-18T19:46:05.560Z,4.10
2023-09-18T19:48:33.709Z,1.92
2023-09-18T19:51:02.881Z,2.50
2023-09-18T19:53:31.122Z,3.00
2023-09-18T19:55:59.236Z,4.10
2023-09-18T19:58:27.564Z,4.60
2023-09-18T20:00:57.026Z,3.53
2023-09-18T20:03:25.745Z,2.43
2023-09-18T20:05:53.972Z,3.80
2023-09-18T20:08:22.037Z,4.90
2023-09-18T20:10:50.440Z,3.20
2023-09-18T20:13:18.513Z,4.40
2023-09-18T20:15:46.594Z,5.13
2023-09-18T20:18:16.453Z,2.45
2023-09-18T20:20:44.680Z,3.45
2023-09-18T20:23:13.162Z,2.97
2023-09-18T20:25:41.227Z,2.80
2023-09-18T20:28:09.319Z,3.70
2023-09-18T20:30:37.838Z,1.92
2023-09-18T20:33:06.568Z,4.00
2023-09-18T20:35:36.231Z,3.07
2023-09-18T20:38:14.397Z,4.30
2023-09-18T20:40:44.739Z,3.95
2023-09-18T20:43:12.871Z,6.00
2023-09-18T20:45:41.578Z,3.83
2023-09-18T20:48:10.266Z,6.22
2023-09-18T20:50:39.814Z,5.72
2023-09-18T20:53:08.540Z,4.33
2023-09-18T20:55:35.682Z,4.30
2023-09-18T20:58:04.206Z,4.07
2023-09-18T21:00:33.410Z,3.70
2023-09-18T21:03:01.672Z,3.90
2023-09-18T21:05:29.966Z,3.10
2023-09-18T21:07:59.381Z,2.30
2023-09-18T21:10:33.377Z,4.60
2023-09-18T21:13:02.916Z,8.15
2023-09-18T21:15:30.983Z,1.92
2023-09-18T21:17:59.087Z,2.47
2023-09-18T21:20:27.222Z,4.60
2023-09-18T21:22:55.473Z,4.17
2023-09-18T21:25:25.051Z,3.53
2023-09-18T21:27:53.080Z,3.53
2023-09-18T21:30:21.174Z,4.03
2023-09-18T21:32:49.293Z,2.17
2023-09-18T21:35:17.606Z,4.35
2023-09-18T21:37:47.285Z,3.55
2023-09-18T21:40:16.057Z,4.40
2023-09-18T21:42:48.144Z,3.80
2023-09-18T21:45:17.545Z,3.63
2023-09-18T21:47:45.775Z,2.00
2023-09-18T21:50:14.145Z,3.00
2023-09-18T21:52:42.237Z,3.13
2023-09-18T21:55:10.627Z,1.90
2023-09-18T21:57:39.516Z,6.80
2023-09-18T22:00:16.416Z,2.20
2023-09-18T22:02:44.667Z,3.30
2023-09-18T22:05:14.179Z,3.00
2023-09-18T22:07:42.328Z,3.63
2023-09-18T22:10:13.036Z,3.97
2023-09-18T22:12:41.305Z,2.10
2023-09-18T22:17:42.766Z,2.60
2023-09-18T22:20:12.929Z,4.18
2023-09-18T22:22:41.470Z,1.40
2023-09-18T22:25:10.399Z,3.73
2023-09-18T22:27:39.014Z,3.53
2023-09-18T22:30:09.014Z,5.10
2023-09-18T22:32:38.784Z,4.82
2023-09-18T22:35:10.646Z,2.20
2023-09-18T22:37:40.052Z,5.00
2023-09-18T22:40:08.476Z,4.10
2023-09-18T22:43:15.853Z,5.83
2023-09-18T22:46:22.205Z,4.18
2023-09-18T22:49:27.709Z,4.47
2023-09-18T22:52:33.086Z,3.28
2023-09-18T22:55:02.588Z,3.05
2023-09-18T22:57:31.970Z,3.50
2023-09-18T23:00:01.403Z,4.32
2023-09-18T23:02:30.010Z,3.97
2023-09-18T23:04:59.636Z,6.38
2023-09-18T23:07:28.014Z,3.90
2023-09-18T23:09:58.564Z,5.80
2023-09-18T23:12:35.421Z,5.40
2023-09-18T23:15:06.201Z,3.58
2023-09-18T23:17:35.799Z,3.58
2023-09-18T23:20:09.058Z,6.07
2023-09-18T23:22:38.408Z,5.15
2023-09-18T23:25:09.353Z,3.47
2023-09-18T23:27:41.585Z,9.83
2023-09-18T23:30:13.411Z,11.05
2023-09-18T23:32:43.991Z,4.28
2023-09-18T23:35:18.064Z,4.88
2023-09-18T23:37:47.056Z,2.90
2023-09-18T23:40:16.182Z,6.30
2023-09-18T23:42:48.331Z,5.72
2023-09-18T23:45:17.544Z,4.20
2023-09-18T23:47:47.909Z,4.40
2023-09-18T23:50:17.172Z,5.10
2023-09-18T23:52:46.525Z,6.25
2023-09-18T23:55:17.379Z,2.60
2023-09-18T23:57:56.400Z,4.38
